sensor_id;sensor_type;location;lat;lon;timestamp;pressure;altitude;pressure_sealevel;temperature;humidity
41513;BME280;27244;59.940;30.280;2023-05-24T00:01:24;101718.19;;;22.60;41.70
41513;BME280;27244;59.940;30.280;2023-05-24T00:03:51;101717.38;;;22.59;41.50
41513;BME280;27244;59.940;30.280;2023-05-24T00:06:18;101718.19;;;22.60;41.64
41513;BME280;27244;59.940;30.280;2023-05-24T00:08:45;101715.38;;;22.60;41.73
41513;BME280;27244;59.940;30.280;2023-05-24T00:11:14;101715.72;;;22.62;41.69
41513;BME280;27244;59.940;30.280;2023-05-24T00:13:41;101700.16;;;22.53;41.05
41513;BME280;27244;59.940;30.280;2023-05-24T00:16:07;101704.91;;;22.60;41.77
41513;BME280;27244;59.940;30.280;2023-05-24T00:18:35;101704.50;;;22.58;41.77
41513;BME280;27244;59.940;30.280;2023-05-24T00:21:05;101711.34;;;22.61;41.44
41513;BME280;27244;59.940;30.280;2023-05-24T00:23:32;101714.56;;;22.59;41.73
41513;BME280;27244;59.940;30.280;2023-05-24T00:26:01;101713.34;;;22.60;41.83
41513;BME280;27244;59.940;30.280;2023-05-24T00:28:30;101713.72;;;22.62;41.94
41513;BME280;27244;59.940;30.280;2023-05-24T00:30:57;101716.56;;;22.58;41.90
41513;BME280;27244;59.940;30.280;2023-05-24T00:33:24;101716.16;;;22.60;41.51
41513;BME280;27244;59.940;30.280;2023-05-24T00:35:52;101726.63;;;22.60;41.87
41513;BME280;27244;59.940;30.280;2023-05-24T00:38:21;101718.97;;;22.60;42.01
41513;BME280;27244;59.940;30.280;2023-05-24T00:40:51;101710.53;;;22.60;41.89
41513;BME280;27244;59.940;30.280;2023-05-24T00:43:20;101706.53;;;22.57;41.85
41513;BME280;27244;59.940;30.280;2023-05-24T00:45:59;101710.09;;;22.69;41.60
41513;BME280;27244;59.940;30.280;2023-05-24T00:48:30;101702.09;;;22.60;41.68
41513;BME280;27244;59.940;30.280;2023-05-24T00:50:57;101705.72;;;22.61;41.95
41513;BME280;27244;59.940;30.280;2023-05-24T00:53:24;101704.13;;;22.60;41.95
41513;BME280;27244;59.940;30.280;2023-05-24T00:55:52;101700.50;;;22.59;41.60
41513;BME280;27244;59.940;30.280;2023-05-24T00:58:19;101703.31;;;22.59;41.60
41513;BME280;27244;59.940;30.280;2023-05-24T01:00:54;101702.47;;;22.62;41.45
41513;BME280;27244;59.940;30.280;2023-05-24T01:03:24;101702.09;;;22.60;41.47
41513;BME280;27244;59.940;30.280;2023-05-24T01:05:54;101705.72;;;22.61;41.33
41513;BME280;27244;59.940;30.280;2023-05-24T01:08:33;101702.88;;;22.64;41.52
41513;BME280;27244;59.940;30.280;2023-05-24T01:11:06;101710.09;;;22.65;41.73
41513;BME280;27244;59.940;30.280;2023-05-24T01:13:41;101713.69;;;22.66;41.70
41513;BME280;27244;59.940;30.280;2023-05-24T01:16:16;101711.69;;;22.66;41.67
41513;BME280;27244;59.940;30.280;2023-05-24T01:18:47;101710.13;;;22.62;41.92
41513;BME280;27244;59.940;30.280;2023-05-24T01:21:21;101708.91;;;22.63;42.07
41513;BME280;27244;59.940;30.280;2023-05-24T01:23:58;101705.69;;;22.64;41.58
41513;BME280;27244;59.940;30.280;2023-05-24T01:26:36;101705.28;;;22.62;42.00
41513;BME280;27244;59.940;30.280;2023-05-24T01:29:07;101705.72;;;22.61;41.92
41513;BME280;27244;59.940;30.280;2023-05-24T01:31:37;101708.53;;;22.61;41.69
41513;BME280;27244;59.940;30.280;2023-05-24T01:34:03;101701.69;;;22.58;42.01
41513;BME280;27244;59.940;30.280;2023-05-24T01:36:30;101704.91;;;22.60;42.10
41513;BME280;27244;59.940;30.280;2023-05-24T01:38:57;101704.13;;;22.60;42.07
41513;BME280;27244;59.940;30.280;2023-05-24T01:41:34;101708.88;;;22.66;41.92
41513;BME280;27244;59.940;30.280;2023-05-24T01:44:09;101711.31;;;22.64;41.78
41513;BME280;27244;59.940;30.280;2023-05-24T01:46:39;101711.75;;;22.59;42.02
41513;BME280;27244;59.940;30.280;2023-05-24T01:49:14;101701.69;;;22.62;42.04
41513;BME280;27244;59.940;30.280;2023-05-24T01:51:52;101712.91;;;22.65;41.77
41513;BME280;27244;59.940;30.280;2023-05-24T01:54:22;101713.75;;;22.58;41.97
41513;BME280;27244;59.940;30.280;2023-05-24T01:56:51;101712.94;;;22.58;42.00
41513;BME280;27244;59.940;30.280;2023-05-24T01:59:21;101708.56;;;22.57;42.05
41513;BME280;27244;59.940;30.280;2023-05-24T02:01:50;101717.75;;;22.61;42.02
41513;BME280;27244;59.940;30.280;2023-05-24T02:04:17;101716.16;;;22.60;41.99
41513;BME280;27244;59.940;30.280;2023-05-24T02:06:44;101723.00;;;22.59;42.02
41513;BME280;27244;59.940;30.280;2023-05-24T02:09:11;101725.81;;;22.59;41.69
41513;BME280;27244;59.940;30.280;2023-05-24T02:11:38;101723.81;;;22.60;41.80
41513;BME280;27244;59.940;30.280;2023-05-24T02:14:04;101721.38;;;22.58;41.97
41513;BME280;27244;59.940;30.280;2023-05-24T02:16:33;101724.19;;;22.62;41.93
41513;BME280;27244;59.940;30.280;2023-05-24T02:19:07;101729.00;;;22.61;41.81
41513;BME280;27244;59.940;30.280;2023-05-24T02:21:34;101728.22;;;22.61;41.64
41513;BME280;27244;59.940;30.280;2023-05-24T02:24:02;101717.38;;;22.59;42.03
41513;BME280;27244;59.940;30.280;2023-05-24T02:26:30;101728.22;;;22.61;41.80
41513;BME280;27244;59.940;30.280;2023-05-24T02:28:57;101729.00;;;22.61;42.33
41513;BME280;27244;59.940;30.280;2023-05-24T02:31:24;101705.34;;;22.55;42.16
41513;BME280;27244;59.940;30.280;2023-05-24T02:33:54;101720.16;;;22.63;42.36
41513;BME280;27244;59.940;30.280;2023-05-24T02:36:21;101724.19;;;22.62;41.91
41513;BME280;27244;59.940;30.280;2023-05-24T02:38:49;101718.53;;;22.62;41.82
41513;BME280;27244;59.940;30.280;2023-05-24T02:41:16;101726.97;;;22.62;41.81
41513;BME280;27244;59.940;30.280;2023-05-24T02:43:43;101724.19;;;22.62;42.09
41513;BME280;27244;59.940;30.280;2023-05-24T02:46:10;101716.16;;;22.60;41.99
41513;BME280;27244;59.940;30.280;2023-05-24T02:48:37;101724.97;;;22.62;41.62
41513;BME280;27244;59.940;30.280;2023-05-24T02:51:06;101723.78;;;22.63;41.29
41513;BME280;27244;59.940;30.280;2023-05-24T02:53:33;101728.19;;;22.64;42.07
41513;BME280;27244;59.940;30.280;2023-05-24T02:56:00;101722.56;;;22.64;41.84
41513;BME280;27244;59.940;30.280;2023-05-24T02:58:29;101726.59;;;22.63;41.63
41513;BME280;27244;59.940;30.280;2023-05-24T03:00:56;101731.00;;;22.64;42.14
41513;BME280;27244;59.940;30.280;2023-05-24T03:03:23;101721.75;;;22.64;41.84
41513;BME280;27244;59.940;30.280;2023-05-24T03:05:50;101726.59;;;22.63;42.09
41513;BME280;27244;59.940;30.280;2023-05-24T03:08:18;101724.56;;;22.64;41.99
41513;BME280;27244;59.940;30.280;2023-05-24T03:10:45;101721.34;;;22.62;41.79
41513;BME280;27244;59.940;30.280;2023-05-24T03:13:13;101722.16;;;22.62;42.24
41513;BME280;27244;59.940;30.280;2023-05-24T03:15:40;101720.16;;;22.63;42.04
41513;BME280;27244;59.940;30.280;2023-05-24T03:18:08;101720.56;;;22.61;42.18
41513;BME280;27244;59.940;30.280;2023-05-24T03:20:38;101734.19;;;22.70;41.81
41513;BME280;27244;59.940;30.280;2023-05-24T03:23:06;101726.59;;;22.63;41.68
41513;BME280;27244;59.940;30.280;2023-05-24T03:25:35;101726.97;;;22.65;41.96
41513;BME280;27244;59.940;30.280;2023-05-24T03:28:03;101723.78;;;22.63;41.98
41513;BME280;27244;59.940;30.280;2023-05-24T03:30:31;101728.59;;;22.63;42.19
41513;BME280;27244;59.940;30.280;2023-05-24T03:32:59;101733.81;;;22.64;42.05
41513;BME280;27244;59.940;30.280;2023-05-24T03:35:26;101730.19;;;22.64;42.25
41513;BME280;27244;59.940;30.280;2023-05-24T03:37:53;101730.59;;;22.62;42.01
41513;BME280;27244;59.940;30.280;2023-05-24T03:40:20;101730.59;;;22.62;41.58
41513;BME280;27244;59.940;30.280;2023-05-24T03:42:54;101746.66;;;22.69;42.19
41513;BME280;27244;59.940;30.280;2023-05-24T03:45:36;101733.00;;;22.64;41.85
41513;BME280;27244;59.940;30.280;2023-05-24T03:48:03;101729.41;;;22.63;42.17
41513;BME280;27244;59.940;30.280;2023-05-24T03:50:30;101734.59;;;22.65;42.33
41513;BME280;27244;59.940;30.280;2023-05-24T03:52:56;101734.59;;;22.65;42.21
41513;BME280;27244;59.940;30.280;2023-05-24T03:55:23;101732.22;;;22.63;42.32
41513;BME280;27244;59.940;30.280;2023-05-24T03:57:50;101729.41;;;22.63;42.12
41513;BME280;27244;59.940;30.280;2023-05-24T04:00:19;101736.19;;;22.66;42.17
41513;BME280;27244;59.940;30.280;2023-05-24T04:02:47;101733.41;;;22.62;41.86
41513;BME280;27244;59.940;30.280;2023-05-24T04:05:14;101735.81;;;22.64;42.08
41513;BME280;27244;59.940;30.280;2023-05-24T04:07:44;101725.00;;;22.58;42.17
41513;BME280;27244;59.940;30.280;2023-05-24T04:10:11;101738.63;;;22.64;41.79
41513;BME280;27244;59.940;30.280;2023-05-24T04:12:40;101744.63;;;22.66;41.63
41513;BME280;27244;59.940;30.280;2023-05-24T04:15:08;101742.25;;;22.64;42.16
41513;BME280;27244;59.940;30.280;2023-05-24T04:17:41;101747.44;;;22.66;41.51
41513;BME280;27244;59.940;30.280;2023-05-24T04:20:10;101750.25;;;22.69;41.74
41513;BME280;27244;59.940;30.280;2023-05-24T04:22:39;101748.25;;;22.66;42.25
41513;BME280;27244;59.940;30.280;2023-05-24T04:25:07;101740.66;;;22.63;41.74
41513;BME280;27244;59.940;30.280;2023-05-24T04:27:34;101743.47;;;22.63;42.17
41513;BME280;27244;59.940;30.280;2023-05-24T04:30:02;101741.44;;;22.64;41.99
41513;BME280;27244;59.940;30.280;2023-05-24T04:32:29;101749.06;;;22.67;41.97
41513;BME280;27244;59.940;30.280;2023-05-24T04:34:57;101741.03;;;22.65;41.94
41513;BME280;27244;59.940;30.280;2023-05-24T04:37:24;101741.44;;;22.64;41.64
41513;BME280;27244;59.940;30.280;2023-05-24T04:39:52;101741.44;;;22.64;41.78
41513;BME280;27244;59.940;30.280;2023-05-24T04:42:19;101752.28;;;22.65;41.81
41513;BME280;27244;59.940;30.280;2023-05-24T04:44:45;101741.81;;;22.66;41.34
41513;BME280;27244;59.940;30.280;2023-05-24T04:47:13;101745.44;;;22.66;41.69
41513;BME280;27244;59.940;30.280;2023-05-24T04:49:40;101746.25;;;22.67;41.58
41513;BME280;27244;59.940;30.280;2023-05-24T04:52:09;101742.63;;;22.66;41.98
41513;BME280;27244;59.940;30.280;2023-05-24T04:54:35;101741.81;;;22.66;41.12
41513;BME280;27244;59.940;30.280;2023-05-24T04:57:02;101743.44;;;22.67;41.78
41513;BME280;27244;59.940;30.280;2023-05-24T04:59:29;101744.25;;;22.67;41.54
41513;BME280;27244;59.940;30.280;2023-05-24T05:01:56;101743.03;;;22.72;41.69
41513;BME280;27244;59.940;30.280;2023-05-24T05:04:25;101741.00;;;22.72;41.64
41513;BME280;27244;59.940;30.280;2023-05-24T05:06:52;101743.41;;;22.74;41.43
41513;BME280;27244;59.940;30.280;2023-05-24T05:09:21;101743.00;;;22.75;42.02
41513;BME280;27244;59.940;30.280;2023-05-24T05:11:49;101740.59;;;22.74;42.81
41513;BME280;27244;59.940;30.280;2023-05-24T05:14:16;101740.97;;;22.76;42.39
41513;BME280;27244;59.940;30.280;2023-05-24T05:16:43;101744.59;;;22.76;42.46
41513;BME280;27244;59.940;30.280;2023-05-24T05:19:10;101746.59;;;22.76;42.67
41513;BME280;27244;59.940;30.280;2023-05-24T05:21:37;101748.19;;;22.77;42.39
41513;BME280;27244;59.940;30.280;2023-05-24T05:24:04;101745.41;;;22.73;42.17
41513;BME280;27244;59.940;30.280;2023-05-24T05:26:33;101761.88;;;22.78;42.10
41513;BME280;27244;59.940;30.280;2023-05-24T05:29:00;101749.00;;;22.77;41.96
41513;BME280;27244;59.940;30.280;2023-05-24T05:31:28;101747.81;;;22.75;41.91
41513;BME280;27244;59.940;30.280;2023-05-24T05:33:55;101761.88;;;22.78;41.74
41513;BME280;27244;59.940;30.280;2023-05-24T05:36:22;101754.63;;;22.77;41.90
41513;BME280;27244;59.940;30.280;2023-05-24T05:38:48;101761.06;;;22.78;42.13
41513;BME280;27244;59.940;30.280;2023-05-24T05:41:16;101761.06;;;22.78;41.96
41513;BME280;27244;59.940;30.280;2023-05-24T05:43:44;101763.44;;;22.79;41.76
41513;BME280;27244;59.940;30.280;2023-05-24T05:46:11;101761.88;;;22.78;41.91
41513;BME280;27244;59.940;30.280;2023-05-24T05:48:40;101762.25;;;22.77;42.51
41513;BME280;27244;59.940;30.280;2023-05-24T05:51:09;101754.63;;;22.77;42.65
41513;BME280;27244;59.940;30.280;2023-05-24T05:53:36;101769.06;;;22.79;43.26
41513;BME280;27244;59.940;30.280;2023-05-24T05:56:03;101765.06;;;22.80;42.48
41513;BME280;27244;59.940;30.280;2023-05-24T05:58:30;101762.22;;;22.80;42.58
41513;BME280;27244;59.940;30.280;2023-05-24T06:00:59;101761.03;;;22.81;42.68
41513;BME280;27244;59.940;30.280;2023-05-24T06:03:26;101758.63;;;22.80;43.12
41513;BME280;27244;59.940;30.280;2023-05-24T06:05:52;101765.06;;;22.80;47.94
41513;BME280;27244;59.940;30.280;2023-05-24T06:08:19;101759.41;;;22.84;50.21
41513;BME280;27244;59.940;30.280;2023-05-24T06:10:46;101761.84;;;22.82;45.73
41513;BME280;27244;59.940;30.280;2023-05-24T06:13:13;101764.63;;;22.85;46.67
41513;BME280;27244;59.940;30.280;2023-05-24T06:15:40;101761.81;;;22.85;45.00
41513;BME280;27244;59.940;30.280;2023-05-24T06:18:08;101759.78;;;22.86;45.90
41513;BME280;27244;59.940;30.280;2023-05-24T06:20:35;101761.38;;;22.87;45.40
41513;BME280;27244;59.940;30.280;2023-05-24T06:23:04;101760.97;;;22.88;46.17
41513;BME280;27244;59.940;30.280;2023-05-24T06:25:31;101761.38;;;22.87;45.33
41513;BME280;27244;59.940;30.280;2023-05-24T06:28:00;101754.94;;;22.86;45.69
41513;BME280;27244;59.940;30.280;2023-05-24T06:30:28;101754.13;;;22.89;46.20
41513;BME280;27244;59.940;30.280;2023-05-24T06:32:55;101759.78;;;22.86;46.25
41513;BME280;27244;59.940;30.280;2023-05-24T06:35:24;101762.59;;;22.89;46.07
41513;BME280;27244;59.940;30.280;2023-05-24T06:37:51;101761.78;;;22.89;46.77
41513;BME280;27244;59.940;30.280;2023-05-24T06:40:18;101762.97;;;22.88;47.02
41513;BME280;27244;59.940;30.280;2023-05-24T06:42:45;101769.78;;;22.90;46.33
41513;BME280;27244;59.940;30.280;2023-05-24T06:45:12;101764.97;;;22.91;47.01
41513;BME280;27244;59.940;30.280;2023-05-24T06:47:39;101771.75;;;22.93;46.87
41513;BME280;27244;59.940;30.280;2023-05-24T06:50:07;101773.81;;;22.93;46.10
41513;BME280;27244;59.940;30.280;2023-05-24T06:52:36;101764.13;;;22.94;45.85
41513;BME280;27244;59.940;30.280;2023-05-24T06:55:03;101766.56;;;22.92;46.61
41513;BME280;27244;59.940;30.280;2023-05-24T06:57:30;101763.34;;;22.90;46.05
41513;BME280;27244;59.940;30.280;2023-05-24T06:59:57;101769.75;;;22.94;45.12
41513;BME280;27244;59.940;30.280;2023-05-24T07:02:24;101760.97;;;22.88;45.75
41513;BME280;27244;59.940;30.280;2023-05-24T07:04:53;101773.81;;;22.93;45.94
41513;BME280;27244;59.940;30.280;2023-05-24T07:07:20;101779.44;;;22.93;46.09
41513;BME280;27244;59.940;30.280;2023-05-24T07:09:48;101778.19;;;22.94;46.58
41513;BME280;27244;59.940;30.280;2023-05-24T07:12:15;101770.56;;;22.94;46.42
41513;BME280;27244;59.940;30.280;2023-05-24T07:14:43;101779.00;;;22.94;45.96
41513;BME280;27244;59.940;30.280;2023-05-24T07:17:10;101773.38;;;22.94;46.09
41513;BME280;27244;59.940;30.280;2023-05-24T07:19:37;101768.19;;;22.93;46.39
41513;BME280;27244;59.940;30.280;2023-05-24T07:22:04;101773.38;;;22.94;49.95
41513;BME280;27244;59.940;30.280;2023-05-24T07:24:31;101779.41;;;22.96;48.53
41513;BME280;27244;59.940;30.280;2023-05-24T07:26:59;101780.19;;;23.00;48.34
41513;BME280;27244;59.940;30.280;2023-05-24T07:29:26;101779.78;;;22.98;48.28
41513;BME280;27244;59.940;30.280;2023-05-24T07:31:54;101776.59;;;22.96;47.05
41513;BME280;27244;59.940;30.280;2023-05-24T07:34:22;101776.16;;;22.98;47.19
41513;BME280;27244;59.940;30.280;2023-05-24T07:36:52;101776.97;;;22.98;47.31
41513;BME280;27244;59.940;30.280;2023-05-24T07:39:18;101780.56;;;22.99;47.17
41513;BME280;27244;59.940;30.280;2023-05-24T07:41:45;101772.13;;;22.99;47.56
41513;BME280;27244;59.940;30.280;2023-05-24T07:44:14;101775.31;;;23.01;47.13
41513;BME280;27244;59.940;30.280;2023-05-24T07:46:40;101774.53;;;23.00;46.85
41513;BME280;27244;59.940;30.280;2023-05-24T07:49:08;101780.56;;;22.99;46.88
41513;BME280;27244;59.940;30.280;2023-05-24T07:51:35;101771.34;;;22.98;46.98
41513;BME280;27244;59.940;30.280;2023-05-24T07:54:02;101775.75;;;22.99;46.98
41513;BME280;27244;59.940;30.280;2023-05-24T07:56:30;101776.16;;;22.98;46.69
41513;BME280;27244;59.940;30.280;2023-05-24T07:58:57;101760.50;;;22.97;46.74
41513;BME280;27244;59.940;30.280;2023-05-24T08:01:30;101766.09;;;23.00;46.59
41513;BME280;27244;59.940;30.280;2023-05-24T08:03:57;101755.69;;;22.94;46.45
41513;BME280;27244;59.940;30.280;2023-05-24T08:06:23;101768.91;;;23.00;46.61
41513;BME280;27244;59.940;30.280;2023-05-24T08:08:51;101760.50;;;22.97;46.65
41513;BME280;27244;59.940;30.280;2023-05-24T08:11:18;101757.25;;;22.98;46.08
41513;BME280;27244;59.940;30.280;2023-05-24T08:13:45;101760.88;;;22.99;46.46
41513;BME280;27244;59.940;30.280;2023-05-24T08:16:12;101774.53;;;23.00;46.29
41513;BME280;27244;59.940;30.280;2023-05-24T08:18:41;101761.25;;;23.01;46.88
41513;BME280;27244;59.940;30.280;2023-05-24T08:21:07;101762.88;;;22.98;46.67
41513;BME280;27244;59.940;30.280;2023-05-24T08:23:34;101766.91;;;22.97;46.76
41513;BME280;27244;59.940;30.280;2023-05-24T08:26:02;101753.66;;;22.98;46.34
41513;BME280;27244;59.940;30.280;2023-05-24T08:28:29;101744.03;;;22.95;46.20
41513;BME280;27244;59.940;30.280;2023-05-24T08:30:56;101756.88;;;23.00;45.60
41513;BME280;27244;59.940;30.280;2023-05-24T08:33:23;101759.25;;;23.01;45.47
41513;BME280;27244;59.940;30.280;2023-05-24T08:35:51;101755.22;;;23.02;45.49
41513;BME280;27244;59.940;30.280;2023-05-24T08:38:18;101759.25;;;23.01;45.25
41513;BME280;27244;59.940;30.280;2023-05-24T08:40:46;101760.03;;;23.02;45.11
41513;BME280;27244;59.940;30.280;2023-05-24T08:43:13;101750.00;;;23.01;45.52
41513;BME280;27244;59.940;30.280;2023-05-24T08:45:41;101749.63;;;22.99;45.49
41513;BME280;27244;59.940;30.280;2023-05-24T08:48:08;101755.22;;;23.02;45.01
41513;BME280;27244;59.940;30.280;2023-05-24T08:50:37;101753.63;;;23.01;45.81
41513;BME280;27244;59.940;30.280;2023-05-24T08:53:07;101754.38;;;23.05;45.74
41513;BME280;27244;59.940;30.280;2023-05-24T08:55:37;101744.75;;;23.03;45.60
41513;BME280;27244;59.940;30.280;2023-05-24T08:58:05;101750.78;;;23.01;45.34
41513;BME280;27244;59.940;30.280;2023-05-24T09:00:32;101747.97;;;23.01;45.64
41513;BME280;27244;59.940;30.280;2023-05-24T09:03:00;101747.63;;;22.99;45.37
41513;BME280;27244;59.940;30.280;2023-05-24T09:05:28;101743.19;;;22.98;45.14
41513;BME280;27244;59.940;30.280;2023-05-24T09:07:55;101746.78;;;23.02;45.24
41513;BME280;27244;59.940;30.280;2023-05-24T09:10:27;101749.56;;;23.06;45.39
41513;BME280;27244;59.940;30.280;2023-05-24T09:12:56;101739.53;;;23.01;44.92
41513;BME280;27244;59.940;30.280;2023-05-24T09:15:24;101741.56;;;23.01;44.88
41513;BME280;27244;59.940;30.280;2023-05-24T09:17:51;101738.34;;;23.02;44.91
41513;BME280;27244;59.940;30.280;2023-05-24T09:20:19;101735.94;;;23.01;44.91
41513;BME280;27244;59.940;30.280;2023-05-24T09:22:50;101741.91;;;23.07;44.62
41513;BME280;27244;59.940;30.280;2023-05-24T09:25:18;101730.34;;;22.97;44.71
41513;BME280;27244;59.940;30.280;2023-05-24T09:27:50;101739.09;;;23.07;44.65
41513;BME280;27244;59.940;30.280;2023-05-24T09:30:17;101738.38;;;22.99;44.54
41513;BME280;27244;59.940;30.280;2023-05-24T09:32:54;101737.06;;;23.11;45.00
41513;BME280;27244;59.940;30.280;2023-05-24T09:35:21;101736.75;;;22.98;44.85
41513;BME280;27244;59.940;30.280;2023-05-24T09:37:48;101726.72;;;23.00;45.11
41513;BME280;27244;59.940;30.280;2023-05-24T09:40:19;101738.72;;;23.04;44.82
41513;BME280;27244;59.940;30.280;2023-05-24T09:42:46;101733.50;;;23.03;44.82
41513;BME280;27244;59.940;30.280;2023-05-24T09:45:17;101735.91;;;23.04;44.63
41513;BME280;27244;59.940;30.280;2023-05-24T09:47:44;101736.31;;;23.03;44.45
41513;BME280;27244;59.940;30.280;2023-05-24T09:50:12;101738.34;;;23.02;44.63
41513;BME280;27244;59.940;30.280;2023-05-24T09:52:39;101725.53;;;22.94;44.63
41513;BME280;27244;59.940;30.280;2023-05-24T09:55:10;101723.88;;;23.04;44.56
41513;BME280;27244;59.940;30.280;2023-05-24T09:57:38;101717.47;;;23.00;44.21
41513;BME280;27244;59.940;30.280;2023-05-24T10:00:06;101724.31;;;22.99;44.59
41513;BME280;27244;59.940;30.280;2023-05-24T10:02:43;101723.06;;;23.03;44.22
41513;BME280;27244;59.940;30.280;2023-05-24T10:05:11;101733.13;;;23.01;44.38
41513;BME280;27244;59.940;30.280;2023-05-24T10:07:40;101720.31;;;22.96;44.72
41513;BME280;27244;59.940;30.280;2023-05-24T10:10:08;101732.34;;;23.00;44.31
41513;BME280;27244;59.940;30.280;2023-05-24T10:12:36;101733.53;;;22.99;44.72
41513;BME280;27244;59.940;30.280;2023-05-24T10:15:09;101730.28;;;23.01;45.01
41513;BME280;27244;59.940;30.280;2023-05-24T10:17:36;101725.09;;;22.99;45.20
41513;BME280;27244;59.940;30.280;2023-05-24T10:20:07;101732.72;;;23.02;45.35
41513;BME280;27244;59.940;30.280;2023-05-24T10:22:40;101725.09;;;22.99;44.91
41513;BME280;27244;59.940;30.280;2023-05-24T10:25:13;101722.28;;;22.99;44.82
41513;BME280;27244;59.940;30.280;2023-05-24T10:27:44;101724.66;;;23.01;45.38
41513;BME280;27244;59.940;30.280;2023-05-24T10:30:16;101723.44;;;23.05;45.41
41513;BME280;27244;59.940;30.280;2023-05-24T10:32:47;101716.22;;;23.01;45.35
41513;BME280;27244;59.940;30.280;2023-05-24T10:35:18;101724.66;;;23.01;44.88
41513;BME280;27244;59.940;30.280;2023-05-24T10:37:46;101725.47;;;23.01;45.14
41513;BME280;27244;59.940;30.280;2023-05-24T10:40:16;101717.03;;;23.01;45.10
41513;BME280;27244;59.940;30.280;2023-05-24T10:42:44;101719.22;;;23.24;44.56
41513;BME280;27244;59.940;30.280;2023-05-24T10:45:31;101718.91;;;23.15;44.61
41513;BME280;27244;59.940;30.280;2023-05-24T10:48:31;101720.94;;;23.15;44.49
41513;BME280;27244;59.940;30.280;2023-05-24T10:51:33;101727.34;;;23.15;44.47
41513;BME280;27244;59.940;30.280;2023-05-24T10:54:16;101718.56;;;23.10;44.58
41513;BME280;27244;59.940;30.280;2023-05-24T10:56:45;101713.41;;;23.01;44.62
41513;BME280;27244;59.940;30.280;2023-05-24T10:59:23;101704.13;;;23.08;44.40
41513;BME280;27244;59.940;30.280;2023-05-24T11:01:54;101708.22;;;22.99;44.24
41513;BME280;27244;59.940;30.280;2023-05-24T11:04:22;101707.41;;;22.99;44.46
41513;BME280;27244;59.940;30.280;2023-05-24T11:06:54;101711.81;;;23.03;44.55
41513;BME280;27244;59.940;30.280;2023-05-24T11:09:22;101709.44;;;22.98;44.27
41513;BME280;27244;59.940;30.280;2023-05-24T11:11:51;101700.97;;;22.98;44.52
41513;BME280;27244;59.940;30.280;2023-05-24T11:14:22;101698.13;;;23.02;44.26
41513;BME280;27244;59.940;30.280;2023-05-24T11:16:50;101694.94;;;23.00;44.37
41513;BME280;27244;59.940;30.280;2023-05-24T11:19:18;101692.53;;;22.98;44.56
41513;BME280;27244;59.940;30.280;2023-05-24T11:21:46;101689.72;;;22.98;43.97
41513;BME280;27244;59.940;30.280;2023-05-24T11:24:16;101684.88;;;23.02;44.06
41513;BME280;27244;59.940;30.280;2023-05-24T11:26:44;101682.91;;;22.99;44.77
41513;BME280;27244;59.940;30.280;2023-05-24T11:29:15;101681.66;;;23.04;43.88
41513;BME280;27244;59.940;30.280;2023-05-24T11:31:49;101667.63;;;23.00;44.23
41513;BME280;27244;59.940;30.280;2023-05-24T11:34:17;101674.84;;;22.98;44.12
41513;BME280;27244;59.940;30.280;2023-05-24T11:36:44;101681.28;;;22.98;43.94
41513;BME280;27244;59.940;30.280;2023-05-24T11:39:12;101678.47;;;22.98;43.90
41513;BME280;27244;59.940;30.280;2023-05-24T11:41:40;101670.03;;;22.98;43.68
41513;BME280;27244;59.940;30.280;2023-05-24T11:44:08;101677.66;;;22.98;43.97
41513;BME280;27244;59.940;30.280;2023-05-24T11:46:36;101672.47;;;22.96;43.72
41513;BME280;27244;59.940;30.280;2023-05-24T11:49:04;101676.88;;;22.97;44.04
41513;BME280;27244;59.940;30.280;2023-05-24T11:51:33;101680.47;;;22.98;43.75
41513;BME280;27244;59.940;30.280;2023-05-24T11:54:00;101668.44;;;22.97;43.82
41513;BME280;27244;59.940;30.280;2023-05-24T11:56:28;101667.22;;;22.98;44.08
41513;BME280;27244;59.940;30.280;2023-05-24T11:59:13;101667.97;;;23.02;43.58
41513;BME280;27244;59.940;30.280;2023-05-24T12:01:41;101671.69;;;22.96;43.62
41513;BME280;27244;59.940;30.280;2023-05-24T12:04:08;101654.81;;;22.92;43.88
41513;BME280;27244;59.940;30.280;2023-05-24T12:06:37;101663.59;;;22.98;43.95
41513;BME280;27244;59.940;30.280;2023-05-24T12:09:05;101656.81;;;22.95;43.56
41513;BME280;27244;59.940;30.280;2023-05-24T12:11:38;101656.00;;;22.95;43.61
41513;BME280;27244;59.940;30.280;2023-05-24T12:14:10;101662.34;;;23.02;43.72
41513;BME280;27244;59.940;30.280;2023-05-24T12:16:38;101651.53;;;22.97;43.67
41513;BME280;27244;59.940;30.280;2023-05-24T12:19:05;101651.19;;;22.95;43.67
41513;BME280;27244;59.940;30.280;2023-05-24T12:21:32;101649.97;;;22.96;43.50
41513;BME280;27244;59.940;30.280;2023-05-24T12:24:07;101649.09;;;23.03;43.23
41513;BME280;27244;59.940;30.280;2023-05-24T12:26:36;101643.09;;;22.97;43.71
41513;BME280;27244;59.940;30.280;2023-05-24T12:29:03;101639.91;;;22.95;43.86
41513;BME280;27244;59.940;30.280;2023-05-24T12:31:32;101644.34;;;22.96;43.39
41513;BME280;27244;59.940;30.280;2023-05-24T12:34:00;101630.72;;;22.91;43.55
41513;BME280;27244;59.940;30.280;2023-05-24T12:36:27;101636.72;;;22.93;43.66
41513;BME280;27244;59.940;30.280;2023-05-24T12:38:56;101646.72;;;22.98;43.78
41513;BME280;27244;59.940;30.280;2023-05-24T12:41:22;101644.34;;;22.96;43.63
41513;BME280;27244;59.940;30.280;2023-05-24T12:43:50;101638.72;;;22.96;43.74
41513;BME280;27244;59.940;30.280;2023-05-24T12:46:18;101633.09;;;22.96;43.73
41513;BME280;27244;59.940;30.280;2023-05-24T12:48:46;101629.06;;;22.94;43.73